sensor_id;sensor_type;location;lat;lon;timestamp;P1;durP1;ratioP1;P2;durP2;ratioP2
11092;SDS011;5600;50.864;6.102;2023-06-10T00:01:39;95.60;;;10.68;;
11092;SDS011;5600;50.864;6.102;2023-06-10T00:04:40;102.03;;;10.93;;
11092;SDS011;5600;50.864;6.102;2023-06-10T00:07:41;102.22;;;10.88;;
11092;SDS011;5600;50.864;6.102;2023-06-10T00:10:43;95.55;;;10.48;;
11092;SDS011;5600;50.864;6.102;2023-06-10T00:13:44;88.72;;;10.80;;
11092;SDS011;5600;50.864;6.102;2023-06-10T00:16:45;115.63;;;12.02;;
11092;SDS011;5600;50.864;6.102;2023-06-10T00:19:46;105.22;;;11.05;;
11092;SDS011;5600;50.864;6.102;2023-06-10T00:22:47;84.03;;;10.27;;
11092;SDS011;5600;50.864;6.102;2023-06-10T00:25:49;123.93;;;12.10;;
11092;SDS011;5600;50.864;6.102;2023-06-10T00:28:50;83.22;;;10.18;;
11092;SDS011;5600;50.864;6.102;2023-06-10T00:31:52;87.30;;;10.48;;
11092;SDS011;5600;50.864;6.102;2023-06-10T00:34:57;69.25;;;9.90;;
11092;SDS011;5600;50.864;6.102;2023-06-10T00:37:58;82.50;;;10.63;;
11092;SDS011;5600;50.864;6.102;2023-06-10T00:40:59;83.28;;;10.75;;
11092;SDS011;5600;50.864;6.102;2023-06-10T00:44:00;75.15;;;10.05;;
11092;SDS011;5600;50.864;6.102;2023-06-10T00:47:02;66.30;;;9.77;;
11092;SDS011;5600;50.864;6.102;2023-06-10T00:50:03;76.07;;;10.27;;
11092;SDS011;5600;50.864;6.102;2023-06-10T00:53:05;84.03;;;9.77;;
11092;SDS011;5600;50.864;6.102;2023-06-10T00:56:06;87.35;;;10.25;;
11092;SDS011;5600;50.864;6.102;2023-06-10T00:59:09;88.93;;;10.35;;
11092;SDS011;5600;50.864;6.102;2023-06-10T01:02:10;80.82;;;10.10;;
11092;SDS011;5600;50.864;6.102;2023-06-10T01:05:11;80.07;;;10.05;;
11092;SDS011;5600;50.864;6.102;2023-06-10T01:11:47;90.30;;;10.65;;
11092;SDS011;5600;50.864;6.102;2023-06-10T01:15:10;73.85;;;10.10;;
11092;SDS011;5600;50.864;6.102;2023-06-10T01:18:12;73.25;;;10.13;;
11092;SDS011;5600;50.864;6.102;2023-06-10T01:21:21;80.85;;;9.75;;
11092;SDS011;5600;50.864;6.102;2023-06-10T01:24:26;76.38;;;10.20;;
11092;SDS011;5600;50.864;6.102;2023-06-10T01:27:29;96.18;;;11.23;;
11092;SDS011;5600;50.864;6.102;2023-06-10T01:34:03;127.05;;;11.20;;
11092;SDS011;5600;50.864;6.102;2023-06-10T01:37:08;94.97;;;11.18;;
11092;SDS011;5600;50.864;6.102;2023-06-10T01:40:13;70.95;;;9.70;;
11092;SDS011;5600;50.864;6.102;2023-06-10T01:43:15;84.60;;;10.65;;
11092;SDS011;5600;50.864;6.102;2023-06-10T01:46:15;82.25;;;11.02;;
11092;SDS011;5600;50.864;6.102;2023-06-10T01:49:20;71.40;;;11.27;;
11092;SDS011;5600;50.864;6.102;2023-06-10T01:52:24;85.57;;;11.75;;
11092;SDS011;5600;50.864;6.102;2023-06-10T01:55:25;76.05;;;10.57;;
11092;SDS011;5600;50.864;6.102;2023-06-10T01:58:26;82.28;;;12.02;;
11092;SDS011;5600;50.864;6.102;2023-06-10T02:01:27;154.43;;;14.27;;
11092;SDS011;5600;50.864;6.102;2023-06-10T02:04:28;95.28;;;11.63;;
11092;SDS011;5600;50.864;6.102;2023-06-10T02:07:28;91.60;;;11.90;;
11092;SDS011;5600;50.864;6.102;2023-06-10T02:10:30;114.60;;;12.60;;
11092;SDS011;5600;50.864;6.102;2023-06-10T02:13:31;108.70;;;12.85;;
11092;SDS011;5600;50.864;6.102;2023-06-10T02:16:32;85.80;;;11.25;;
11092;SDS011;5600;50.864;6.102;2023-06-10T02:19:33;107.28;;;12.35;;
11092;SDS011;5600;50.864;6.102;2023-06-10T02:22:37;82.05;;;11.35;;
11092;SDS011;5600;50.864;6.102;2023-06-10T02:25:37;109.45;;;12.95;;
11092;SDS011;5600;50.864;6.102;2023-06-10T02:28:42;114.70;;;12.63;;
11092;SDS011;5600;50.864;6.102;2023-06-10T02:31:43;58.63;;;10.00;;
11092;SDS011;5600;50.864;6.102;2023-06-10T02:34:44;88.97;;;11.55;;
11092;SDS011;5600;50.864;6.102;2023-06-10T02:37:46;121.80;;;13.10;;
11092;SDS011;5600;50.864;6.102;2023-06-10T02:40:47;98.90;;;12.60;;
11092;SDS011;5600;50.864;6.102;2023-06-10T02:43:48;89.53;;;11.38;;
11092;SDS011;5600;50.864;6.102;2023-06-10T02:46:50;112.13;;;13.00;;
11092;SDS011;5600;50.864;6.102;2023-06-10T02:49:51;75.10;;;11.98;;
11092;SDS011;5600;50.864;6.102;2023-06-10T02:52:53;87.07;;;11.85;;
11092;SDS011;5600;50.864;6.102;2023-06-10T02:55:54;110.18;;;12.05;;
11092;SDS011;5600;50.864;6.102;2023-06-10T02:58:56;78.30;;;10.77;;
11092;SDS011;5600;50.864;6.102;2023-06-10T03:01:59;72.65;;;11.32;;
11092;SDS011;5600;50.864;6.102;2023-06-10T03:05:04;88.40;;;11.68;;
11092;SDS011;5600;50.864;6.102;2023-06-10T03:08:05;78.82;;;10.57;;
11092;SDS011;5600;50.864;6.102;2023-06-10T03:11:09;83.40;;;11.40;;
11092;SDS011;5600;50.864;6.102;2023-06-10T03:14:12;95.90;;;11.85;;
11092;SDS011;5600;50.864;6.102;2023-06-10T03:17:13;79.63;;;11.55;;
11092;SDS011;5600;50.864;6.102;2023-06-10T03:20:17;84.25;;;11.32;;
11092;SDS011;5600;50.864;6.102;2023-06-10T03:23:19;86.18;;;11.70;;
11092;SDS011;5600;50.864;6.102;2023-06-10T03:26:21;80.82;;;11.48;;
11092;SDS011;5600;50.864;6.102;2023-06-10T03:29:22;77.60;;;10.98;;
11092;SDS011;5600;50.864;6.102;2023-06-10T03:32:24;89.20;;;11.55;;
11092;SDS011;5600;50.864;6.102;2023-06-10T03:35:26;90.93;;;11.90;;
11092;SDS011;5600;50.864;6.102;2023-06-10T03:38:28;91.30;;;11.80;;
11092;SDS011;5600;50.864;6.102;2023-06-10T03:41:29;83.47;;;11.43;;
11092;SDS011;5600;50.864;6.102;2023-06-10T03:44:33;98.15;;;12.52;;
11092;SDS011;5600;50.864;6.102;2023-06-10T03:47:34;113.63;;;13.80;;
11092;SDS011;5600;50.864;6.102;2023-06-10T03:50:38;102.30;;;12.65;;
11092;SDS011;5600;50.864;6.102;2023-06-10T03:53:39;105.88;;;13.05;;
11092;SDS011;5600;50.864;6.102;2023-06-10T03:56:40;115.50;;;12.60;;
11092;SDS011;5600;50.864;6.102;2023-06-10T03:59:42;95.60;;;12.30;;
11092;SDS011;5600;50.864;6.102;2023-06-10T04:02:44;78.30;;;11.95;;
11092;SDS011;5600;50.864;6.102;2023-06-10T04:05:58;44.57;;;10.13;;
11092;SDS011;5600;50.864;6.102;2023-06-10T04:09:00;94.27;;;11.90;;
11092;SDS011;5600;50.864;6.102;2023-06-10T04:12:03;80.57;;;11.47;;
11092;SDS011;5600;50.864;6.102;2023-06-10T04:15:07;102.28;;;12.80;;
11092;SDS011;5600;50.864;6.102;2023-06-10T04:18:08;108.50;;;12.93;;
11092;SDS011;5600;50.864;6.102;2023-06-10T04:21:10;87.87;;;12.60;;
11092;SDS011;5600;50.864;6.102;2023-06-10T04:24:12;83.57;;;12.40;;
11092;SDS011;5600;50.864;6.102;2023-06-10T04:27:14;96.30;;;13.48;;
11092;SDS011;5600;50.864;6.102;2023-06-10T04:30:16;87.57;;;12.47;;
11092;SDS011;5600;50.864;6.102;2023-06-10T04:33:18;87.47;;;12.43;;
11092;SDS011;5600;50.864;6.102;2023-06-10T04:36:19;89.18;;;11.80;;
11092;SDS011;5600;50.864;6.102;2023-06-10T04:39:20;89.35;;;12.63;;
11092;SDS011;5600;50.864;6.102;2023-06-10T04:42:23;98.65;;;12.90;;
11092;SDS011;5600;50.864;6.102;2023-06-10T04:45:24;84.10;;;11.60;;
11092;SDS011;5600;50.864;6.102;2023-06-10T04:48:25;84.45;;;11.75;;
11092;SDS011;5600;50.864;6.102;2023-06-10T04:51:27;105.38;;;12.82;;
11092;SDS011;5600;50.864;6.102;2023-06-10T04:54:29;82.97;;;12.77;;
11092;SDS011;5600;50.864;6.102;2023-06-10T04:57:30;87.05;;;12.10;;
11092;SDS011;5600;50.864;6.102;2023-06-10T05:00:31;107.03;;;12.93;;
11092;SDS011;5600;50.864;6.102;2023-06-10T05:03:32;91.28;;;12.88;;
11092;SDS011;5600;50.864;6.102;2023-06-10T05:06:32;101.57;;;12.90;;
11092;SDS011;5600;50.864;6.102;2023-06-10T05:09:34;140.50;;;14.38;;
11092;SDS011;5600;50.864;6.102;2023-06-10T05:12:35;105.68;;;12.50;;
11092;SDS011;5600;50.864;6.102;2023-06-10T05:15:38;90.28;;;12.32;;
11092;SDS011;5600;50.864;6.102;2023-06-10T05:18:40;129.23;;;13.88;;
11092;SDS011;5600;50.864;6.102;2023-06-10T05:21:41;80.32;;;12.05;;
11092;SDS011;5600;50.864;6.102;2023-06-10T05:24:42;128.13;;;14.30;;
11092;SDS011;5600;50.864;6.102;2023-06-10T05:27:44;135.55;;;14.85;;
11092;SDS011;5600;50.864;6.102;2023-06-10T05:30:45;93.25;;;13.68;;
11092;SDS011;5600;50.864;6.102;2023-06-10T05:33:46;76.25;;;12.75;;
11092;SDS011;5600;50.864;6.102;2023-06-10T05:36:47;164.55;;;15.95;;
11092;SDS011;5600;50.864;6.102;2023-06-10T05:39:48;182.95;;;16.30;;
11092;SDS011;5600;50.864;6.102;2023-06-10T05:42:49;126.07;;;13.57;;
11092;SDS011;5600;50.864;6.102;2023-06-10T05:45:50;87.72;;;12.68;;
11092;SDS011;5600;50.864;6.102;2023-06-10T05:48:51;165.32;;;15.25;;
11092;SDS011;5600;50.864;6.102;2023-06-10T05:51:52;95.57;;;11.98;;
11092;SDS011;5600;50.864;6.102;2023-06-10T05:54:53;81.20;;;11.75;;
11092;SDS011;5600;50.864;6.102;2023-06-10T05:57:58;168.60;;;14.98;;
11092;SDS011;5600;50.864;6.102;2023-06-10T06:01:02;165.05;;;14.88;;
11092;SDS011;5600;50.864;6.102;2023-06-10T06:04:04;104.90;;;12.68;;
11092;SDS011;5600;50.864;6.102;2023-06-10T06:07:05;132.18;;;13.85;;
11092;SDS011;5600;50.864;6.102;2023-06-10T06:10:07;130.38;;;12.77;;
11092;SDS011;5600;50.864;6.102;2023-06-10T06:13:07;75.88;;;10.75;;
11092;SDS011;5600;50.864;6.102;2023-06-10T06:16:08;80.32;;;11.40;;
11092;SDS011;5600;50.864;6.102;2023-06-10T06:19:09;69.80;;;10.20;;
11092;SDS011;5600;50.864;6.102;2023-06-10T06:22:11;112.00;;;12.50;;
11092;SDS011;5600;50.864;6.102;2023-06-10T06:25:13;66.72;;;9.93;;
11092;SDS011;5600;50.864;6.102;2023-06-10T06:28:14;66.78;;;9.65;;
11092;SDS011;5600;50.864;6.102;2023-06-10T06:31:15;82.70;;;10.68;;
11092;SDS011;5600;50.864;6.102;2023-06-10T06:34:16;79.80;;;10.75;;
11092;SDS011;5600;50.864;6.102;2023-06-10T06:37:17;80.40;;;10.95;;
11092;SDS011;5600;50.864;6.102;2023-06-10T06:40:19;52.83;;;9.75;;
11092;SDS011;5600;50.864;6.102;2023-06-10T06:43:20;76.28;;;10.25;;
11092;SDS011;5600;50.864;6.102;2023-06-10T06:46:30;74.05;;;10.60;;
11092;SDS011;5600;50.864;6.102;2023-06-10T06:49:31;99.88;;;11.65;;
11092;SDS011;5600;50.864;6.102;2023-06-10T06:52:36;102.53;;;11.57;;
11092;SDS011;5600;50.864;6.102;2023-06-10T06:55:37;100.78;;;11.05;;
11092;SDS011;5600;50.864;6.102;2023-06-10T06:58:41;96.75;;;10.88;;
11092;SDS011;5600;50.864;6.102;2023-06-10T07:01:42;68.72;;;9.55;;
11092;SDS011;5600;50.864;6.102;2023-06-10T07:04:43;78.43;;;9.98;;
11092;SDS011;5600;50.864;6.102;2023-06-10T07:07:45;115.65;;;10.77;;
11092;SDS011;5600;50.864;6.102;2023-06-10T07:10:47;76.97;;;9.40;;
11092;SDS011;5600;50.864;6.102;2023-06-10T07:13:49;89.40;;;9.57;;
11092;SDS011;5600;50.864;6.102;2023-06-10T07:16:50;81.70;;;9.35;;
11092;SDS011;5600;50.864;6.102;2023-06-10T07:19:51;92.20;;;9.98;;
11092;SDS011;5600;50.864;6.102;2023-06-10T07:22:52;88.53;;;9.98;;
11092;SDS011;5600;50.864;6.102;2023-06-10T07:25:53;79.15;;;8.68;;
11092;SDS011;5600;50.864;6.102;2023-06-10T07:28:54;114.20;;;10.73;;
11092;SDS011;5600;50.864;6.102;2023-06-10T07:31:56;78.38;;;9.35;;
11092;SDS011;5600;50.864;6.102;2023-06-10T07:42:39;106.90;;;10.45;;
11092;SDS011;5600;50.864;6.102;2023-06-10T07:45:40;105.43;;;10.55;;
11092;SDS011;5600;50.864;6.102;2023-06-10T07:48:41;78.50;;;8.70;;
11092;SDS011;5600;50.864;6.102;2023-06-10T07:51:43;99.30;;;10.10;;
11092;SDS011;5600;50.864;6.102;2023-06-10T07:54:43;134.65;;;10.93;;
11092;SDS011;5600;50.864;6.102;2023-06-10T07:57:44;122.45;;;10.65;;
11092;SDS011;5600;50.864;6.102;2023-06-10T08:00:46;98.55;;;10.10;;
11092;SDS011;5600;50.864;6.102;2023-06-10T08:03:47;98.47;;;10.00;;
11092;SDS011;5600;50.864;6.102;2023-06-10T08:06:48;94.35;;;9.75;;
11092;SDS011;5600;50.864;6.102;2023-06-10T08:09:49;138.18;;;11.02;;
11092;SDS011;5600;50.864;6.102;2023-06-10T08:12:50;100.43;;;9.70;;
11092;SDS011;5600;50.864;6.102;2023-06-10T08:15:52;81.15;;;8.70;;
11092;SDS011;5600;50.864;6.102;2023-06-10T08:18:55;101.25;;;9.60;;
11092;SDS011;5600;50.864;6.102;2023-06-10T08:21:56;86.35;;;9.38;;
11092;SDS011;5600;50.864;6.102;2023-06-10T08:24:57;115.05;;;10.70;;
11092;SDS011;5600;50.864;6.102;2023-06-10T08:27:58;77.78;;;9.02;;
11092;SDS011;5600;50.864;6.102;2023-06-10T08:30:59;79.30;;;9.25;;
11092;SDS011;5600;50.864;6.102;2023-06-10T08:34:01;115.28;;;11.15;;
11092;SDS011;5600;50.864;6.102;2023-06-10T08:37:02;144.20;;;11.20;;
11092;SDS011;5600;50.864;6.102;2023-06-10T08:40:04;98.80;;;9.73;;
11092;SDS011;5600;50.864;6.102;2023-06-10T08:43:06;104.45;;;10.65;;
11092;SDS011;5600;50.864;6.102;2023-06-10T08:46:08;155.95;;;12.57;;
11092;SDS011;5600;50.864;6.102;2023-06-10T08:49:10;183.35;;;13.48;;
11092;SDS011;5600;50.864;6.102;2023-06-10T08:52:15;87.55;;;9.40;;
11092;SDS011;5600;50.864;6.102;2023-06-10T08:58:32;100.93;;;10.25;;
11092;SDS011;5600;50.864;6.102;2023-06-10T09:01:42;102.15;;;9.32;;
11092;SDS011;5600;50.864;6.102;2023-06-10T09:04:44;107.00;;;10.25;;
11092;SDS011;5600;50.864;6.102;2023-06-10T09:07:46;125.85;;;10.65;;
11092;SDS011;5600;50.864;6.102;2023-06-10T09:10:48;101.22;;;9.45;;
11092;SDS011;5600;50.864;6.102;2023-06-10T09:13:49;147.55;;;11.65;;
11092;SDS011;5600;50.864;6.102;2023-06-10T09:16:50;150.85;;;11.90;;
11092;SDS011;5600;50.864;6.102;2023-06-10T09:19:52;147.00;;;11.77;;
11092;SDS011;5600;50.864;6.102;2023-06-10T09:22:55;89.50;;;9.65;;
11092;SDS011;5600;50.864;6.102;2023-06-10T09:25:57;83.65;;;8.63;;
11092;SDS011;5600;50.864;6.102;2023-06-10T09:29:05;109.40;;;10.43;;
11092;SDS011;5600;50.864;6.102;2023-06-10T09:32:06;99.10;;;9.63;;
11092;SDS011;5600;50.864;6.102;2023-06-10T09:35:11;103.50;;;9.57;;
11092;SDS011;5600;50.864;6.102;2023-06-10T09:38:13;78.93;;;8.75;;
11092;SDS011;5600;50.864;6.102;2023-06-10T09:41:15;73.18;;;8.45;;
11092;SDS011;5600;50.864;6.102;2023-06-10T09:44:17;93.28;;;9.65;;
11092;SDS011;5600;50.864;6.102;2023-06-10T09:47:20;85.38;;;8.98;;
11092;SDS011;5600;50.864;6.102;2023-06-10T09:50:22;88.65;;;9.82;;
11092;SDS011;5600;50.864;6.102;2023-06-10T09:53:23;96.80;;;9.57;;
11092;SDS011;5600;50.864;6.102;2023-06-10T09:56:34;84.93;;;9.38;;
11092;SDS011;5600;50.864;6.102;2023-06-10T09:59:37;102.90;;;9.90;;
11092;SDS011;5600;50.864;6.102;2023-06-10T10:02:44;126.72;;;10.90;;
11092;SDS011;5600;50.864;6.102;2023-06-10T10:05:46;117.20;;;10.77;;
11092;SDS011;5600;50.864;6.102;2023-06-10T10:08:48;91.65;;;9.40;;
11092;SDS011;5600;50.864;6.102;2023-06-10T10:11:50;72.97;;;8.85;;
11092;SDS011;5600;50.864;6.102;2023-06-10T10:14:54;80.65;;;9.10;;
11092;SDS011;5600;50.864;6.102;2023-06-10T10:18:09;65.70;;;8.60;;
11092;SDS011;5600;50.864;6.102;2023-06-10T10:21:13;83.70;;;8.85;;
11092;SDS011;5600;50.864;6.102;2023-06-10T10:27:30;82.20;;;8.80;;
11092;SDS011;5600;50.864;6.102;2023-06-10T10:30:47;81.85;;;8.88;;
11092;SDS011;5600;50.864;6.102;2023-06-10T10:36:52;136.60;;;11.55;;
11092;SDS011;5600;50.864;6.102;2023-06-10T10:39:53;91.57;;;9.73;;
11092;SDS011;5600;50.864;6.102;2023-06-10T10:42:55;91.88;;;9.48;;
11092;SDS011;5600;50.864;6.102;2023-06-10T10:46:00;71.72;;;9.13;;
11092;SDS011;5600;50.864;6.102;2023-06-10T10:49:03;100.78;;;10.65;;
11092;SDS011;5600;50.864;6.102;2023-06-10T10:52:05;79.55;;;9.48;;
11092;SDS011;5600;50.864;6.102;2023-06-10T10:55:12;60.00;;;8.50;;
11092;SDS011;5600;50.864;6.102;2023-06-10T10:58:14;77.05;;;8.88;;
11092;SDS011;5600;50.864;6.102;2023-06-10T11:01:17;76.32;;;9.40;;
11092;SDS011;5600;50.864;6.102;2023-06-10T11:04:18;83.10;;;9.20;;
11092;SDS011;5600;50.864;6.102;2023-06-10T11:07:20;74.25;;;9.13;;
11092;SDS011;5600;50.864;6.102;2023-06-10T11:10:32;77.47;;;9.25;;
11092;SDS011;5600;50.864;6.102;2023-06-10T11:13:34;58.17;;;7.53;;
11092;SDS011;5600;50.864;6.102;2023-06-10T11:16:39;79.88;;;9.50;;
11092;SDS011;5600;50.864;6.102;2023-06-10T11:19:43;81.32;;;8.98;;
11092;SDS011;5600;50.864;6.102;2023-06-10T11:22:59;91.28;;;9.45;;
11092;SDS011;5600;50.864;6.102;2023-06-10T11:26:17;64.57;;;8.25;;
11092;SDS011;5600;50.864;6.102;2023-06-10T11:29:32;62.08;;;8.40;;
11092;SDS011;5600;50.864;6.102;2023-06-10T11:32:34;61.40;;;8.50;;
11092;SDS011;5600;50.864;6.102;2023-06-10T11:35:36;65.93;;;8.15;;
11092;SDS011;5600;50.864;6.102;2023-06-10T11:38:43;86.03;;;9.60;;
11092;SDS011;5600;50.864;6.102;2023-06-10T11:41:45;98.70;;;10.02;;
11092;SDS011;5600;50.864;6.102;2023-06-10T11:44:50;78.88;;;8.88;;
11092;SDS011;5600;50.864;6.102;2023-06-10T11:47:58;85.30;;;9.85;;
11092;SDS011;5600;50.864;6.102;2023-06-10T11:50:59;66.55;;;8.30;;
11092;SDS011;5600;50.864;6.102;2023-06-10T11:54:01;71.63;;;8.32;;
11092;SDS011;5600;50.864;6.102;2023-06-10T11:57:03;99.22;;;9.45;;
11092;SDS011;5600;50.864;6.102;2023-06-10T12:00:05;68.35;;;8.07;;
11092;SDS011;5600;50.864;6.102;2023-06-10T12:03:11;60.72;;;8.35;;
11092;SDS011;5600;50.864;6.102;2023-06-10T12:06:13;55.28;;;7.43;;
11092;SDS011;5600;50.864;6.102;2023-06-10T12:09:22;74.45;;;8.70;;
11092;SDS011;5600;50.864;6.102;2023-06-10T12:12:24;60.22;;;7.38;;
11092;SDS011;5600;50.864;6.102;2023-06-10T12:15:26;70.07;;;8.07;;
11092;SDS011;5600;50.864;6.102;2023-06-10T12:18:29;65.53;;;8.25;;
11092;SDS011;5600;50.864;6.102;2023-06-10T12:21:31;79.38;;;8.38;;
11092;SDS011;5600;50.864;6.102;2023-06-10T12:24:39;75.43;;;8.30;;
11092;SDS011;5600;50.864;6.102;2023-06-10T12:27:57;87.28;;;8.77;;
11092;SDS011;5600;50.864;6.102;2023-06-10T12:31:05;69.40;;;8.05;;
11092;SDS011;5600;50.864;6.102;2023-06-10T12:34:08;97.03;;;9.57;;
11092;SDS011;5600;50.864;6.102;2023-06-10T12:37:10;81.07;;;8.85;;
11092;SDS011;5600;50.864;6.102;2023-06-10T12:40:15;77.80;;;8.65;;
11092;SDS011;5600;50.864;6.102;2023-06-10T12:43:20;89.80;;;9.00;;
11092;SDS011;5600;50.864;6.102;2023-06-10T12:46:22;99.70;;;9.18;;
11092;SDS011;5600;50.864;6.102;2023-06-10T12:49:23;124.55;;;10.07;;
11092;SDS011;5600;50.864;6.102;2023-06-10T12:52:26;91.88;;;9.07;;
11092;SDS011;5600;50.864;6.102;2023-06-10T12:55:28;73.72;;;8.05;;
11092;SDS011;5600;50.864;6.102;2023-06-10T12:58:29;71.53;;;7.93;;
11092;SDS011;5600;50.864;6.102;2023-06-10T13:01:30;93.63;;;8.65;;
11092;SDS011;5600;50.864;6.102;2023-06-10T13:04:31;58.60;;;7.47;;
11092;SDS011;5600;50.864;6.102;2023-06-10T13:07:33;65.82;;;7.80;;
11092;SDS011;5600;50.864;6.102;2023-06-10T13:10:34;69.10;;;7.53;;
11092;SDS011;5600;50.864;6.102;2023-06-10T13:13:36;64.25;;;7.75;;
11092;SDS011;5600;50.864;6.102;2023-06-10T13:16:37;71.97;;;7.97;;
11092;SDS011;5600;50.864;6.102;2023-06-10T13:19:38;58.90;;;7.00;;
11092;SDS011;5600;50.864;6.102;2023-06-10T13:22:39;125.20;;;10.30;;
11092;SDS011;5600;50.864;6.102;2023-06-10T13:25:41;81.22;;;8.27;;
11092;SDS011;5600;50.864;6.102;2023-06-10T13:28:44;93.35;;;9.00;;
11092;SDS011;5600;50.864;6.102;2023-06-10T13:31:45;91.25;;;8.68;;
11092;SDS011;5600;50.864;6.102;2023-06-10T13:34:47;82.25;;;8.30;;
11092;SDS011;5600;50.864;6.102;2023-06-10T13:37:49;77.40;;;8.55;;
11092;SDS011;5600;50.864;6.102;2023-06-10T13:40:50;68.68;;;8.60;;
11092;SDS011;5600;50.864;6.102;2023-06-10T13:43:51;72.82;;;8.07;;
11092;SDS011;5600;50.864;6.102;2023-06-10T13:46:53;113.18;;;10.00;;
11092;SDS011;5600;50.864;6.102;2023-06-10T13:49:54;95.20;;;9.48;;
11092;SDS011;5600;50.864;6.102;2023-06-10T13:52:55;89.95;;;10.02;;
11092;SDS011;5600;50.864;6.102;2023-06-10T13:55:56;75.22;;;8.85;;
11092;SDS011;5600;50.864;6.102;2023-06-10T13:58:57;70.63;;;8.50;;
11092;SDS011;5600;50.864;6.102;2023-06-10T14:01:59;61.55;;;7.82;;
11092;SDS011;5600;50.864;6.102;2023-06-10T14:05:00;53.40;;;7.53;;
11092;SDS011;5600;50.864;6.102;2023-06-10T14:08:01;75.70;;;8.93;;
11092;SDS011;5600;50.864;6.102;2023-06-10T14:11:03;63.53;;;8.77;;
11092;SDS011;5600;50.864;6.102;2023-06-10T14:14:04;59.70;;;8.30;;
11092;SDS011;5600;50.864;6.102;2023-06-10T14:17:06;95.10;;;10.10;;
11092;SDS011;5600;50.864;6.102;2023-06-10T14:20:07;68.95;;;8.48;;
11092;SDS011;5600;50.864;6.102;2023-06-10T14:23:08;66.95;;;8.00;;
11092;SDS011;5600;50.864;6.102;2023-06-10T14:26:09;87.35;;;9.30;;
11092;SDS011;5600;50.864;6.102;2023-06-10T14:29:11;68.70;;;8.55;;
11092;SDS011;5600;50.864;6.102;2023-06-10T14:32:14;58.88;;;7.65;;
11092;SDS011;5600;50.864;6.102;2023-06-10T14:35:15;66.05;;;8.52;;
11092;SDS011;5600;50.864;6.102;2023-06-10T14:38:17;76.30;;;8.57;;
11092;SDS011;5600;50.864;6.102;2023-06-10T14:41:18;60.97;;;8.05;;
11092;SDS011;5600;50.864;6.102;2023-06-10T14:44:20;57.88;;;8.15;;
11092;SDS011;5600;50.864;6.102;2023-06-10T14:47:21;64.40;;;8.25;;
11092;SDS011;5600;50.864;6.102;2023-06-10T14:50:25;75.88;;;8.57;;
11092;SDS011;5600;50.864;6.102;2023-06-10T14:53:27;71.45;;;8.35;;
11092;SDS011;5600;50.864;6.102;2023-06-10T14:56:31;69.22;;;8.32;;
11092;SDS011;5600;50.864;6.102;2023-06-10T14:59:33;82.60;;;9.00;;
11092;SDS011;5600;50.864;6.102;2023-06-10T15:02:34;77.30;;;8.63;;
11092;SDS011;5600;50.864;6.102;2023-06-10T15:05:36;59.00;;;8.05;;
11092;SDS011;5600;50.864;6.102;2023-06-10T15:08:38;61.13;;;7.80;;
11092;SDS011;5600;50.864;6.102;2023-06-10T15:11:39;69.45;;;8.18;;
11092;SDS011;5600;50.864;6.102;2023-06-10T15:14:40;87.03;;;9.57;;
11092;SDS011;5600;50.864;6.102;2023-06-10T15:17:42;85.55;;;8.73;;
11092;SDS011;5600;50.864;6.102;2023-06-10T15:20:43;97.55;;;9.23;;
11092;SDS011;5600;50.864;6.102;2023-06-10T15:23:44;117.28;;;11.43;;
11092;SDS011;5600;50.864;6.102;2023-06-10T15:26:46;91.45;;;8.65;;
11092;SDS011;5600;50.864;6.102;2023-06-10T15:29:47;74.72;;;8.05;;
11092;SDS011;5600;50.864;6.102;2023-06-10T15:32:48;86.07;;;8.77;;
11092;SDS011;5600;50.864;6.102;2023-06-10T15:35:50;84.10;;;8.55;;
11092;SDS011;5600;50.864;6.102;2023-06-10T15:38:53;105.10;;;9.18;;
11092;SDS011;5600;50.864;6.102;2023-06-10T15:41:58;63.97;;;7.30;;
11092;SDS011;5600;50.864;6.102;2023-06-10T15:44:59;77.63;;;8.50;;
11092;SDS011;5600;50.864;6.102;2023-06-10T15:48:00;86.50;;;8.38;;
11092;SDS011;5600;50.864;6.102;2023-06-10T15:51:02;66.43;;;7.70;;
11092;SDS011;5600;50.864;6.102;2023-06-10T15:54:03;58.53;;;7.43;;
11092;SDS011;5600;50.864;6.102;2023-06-10T15:57:04;94.22;;;9.07;;
11092;SDS011;5600;50.864;6.102;2023-06-10T16:00:06;83.28;;;8.75;;
11092;SDS011;5600;50.864;6.102;2023-06-10T16:03:08;63.38;;;8.13;;
11092;SDS011;5600;50.864;6.102;2023-06-10T16:06:09;75.32;;;8.43;;
11092;SDS011;5600;50.864;6.102;2023-06-10T16:09:10;83.95;;;8.80;;
11092;SDS011;5600;50.864;6.102;2023-06-10T16:12:11;60.78;;;7.53;;
11092;SDS011;5600;50.864;6.102;2023-06-10T16:15:13;69.95;;;8.30;;
11092;SDS011;5600;50.864;6.102;2023-06-10T16:18:14;69.85;;;8.00;;
11092;SDS011;5600;50.864;6.102;2023-06-10T16:21:15;92.85;;;9.07;;
11092;SDS011;5600;50.864;6.102;2023-06-10T16:24:16;76.45;;;9.50;;
11092;SDS011;5600;50.864;6.102;2023-06-10T16:27:17;100.93;;;9.57;;
11092;SDS011;5600;50.864;6.102;2023-06-10T16:30:19;66.07;;;7.93;;
11092;SDS011;5600;50.864;6.102;2023-06-10T16:33:20;97.63;;;9.52;;
11092;SDS011;5600;50.864;6.102;2023-06-10T16:36:21;107.82;;;9.65;;
11092;SDS011;5600;50.864;6.102;2023-06-10T16:39:22;94.90;;;9.02;;
11092;SDS011;5600;50.864;6.102;2023-06-10T16:42:23;72.18;;;8.43;;
11092;SDS011;5600;50.864;6.102;2023-06-10T16:45:24;73.18;;;7.88;;
11092;SDS011;5600;50.864;6.102;2023-06-10T16:48:25;84.00;;;8.65;;
11092;SDS011;5600;50.864;6.102;2023-06-10T16:51:26;84.93;;;8.68;;
11092;SDS011;5600;50.864;6.102;2023-06-10T16:54:27;69.15;;;7.88;;
11092;SDS011;5600;50.864;6.102;2023-06-10T16:57:28;72.75;;;7.45;;
11092;SDS011;5600;50.864;6.102;2023-06-10T17:00:30;64.70;;;7.28;;
11092;SDS011;5600;50.864;6.102;2023-06-10T17:03:31;93.20;;;8.75;;
11092;SDS011;5600;50.864;6.102;2023-06-10T17:06:32;106.72;;;9.57;;
11092;SDS011;5600;50.864;6.102;2023-06-10T17:09:34;95.22;;;8.55;;
11092;SDS011;5600;50.864;6.102;2023-06-10T17:12:35;72.18;;;8.18;;
11092;SDS011;5600;50.864;6.102;2023-06-10T17:15:36;79.63;;;8.10;;
11092;SDS011;5600;50.864;6.102;2023-06-10T17:18:37;102.95;;;9.32;;
11092;SDS011;5600;50.864;6.102;2023-06-10T17:21:38;81.32;;;8.32;;
11092;SDS011;5600;50.864;6.102;2023-06-10T17:24:39;87.78;;;8.30;;
11092;SDS011;5600;50.864;6.102;2023-06-10T17:27:41;95.18;;;8.88;;
11092;SDS011;5600;50.864;6.102;2023-06-10T17:30:43;79.43;;;8.00;;
11092;SDS011;5600;50.864;6.102;2023-06-10T17:33:45;69.55;;;7.32;;
11092;SDS011;5600;50.864;6.102;2023-06-10T17:36:47;129.20;;;9.95;;
11092;SDS011;5600;50.864;6.102;2023-06-10T17:39:48;98.65;;;9.43;;
11092;SDS011;5600;50.864;6.102;2023-06-10T17:42:50;82.25;;;8.13;;
11092;SDS011;5600;50.864;6.102;2023-06-10T17:45:51;79.07;;;7.80;;
11092;SDS011;5600;50.864;6.102;2023-06-10T17:48:53;95.82;;;8.63;;
11092;SDS011;5600;50.864;6.102;2023-06-10T17:51:54;99.30;;;9.00;;
11092;SDS011;5600;50.864;6.102;2023-06-10T17:54:54;103.90;;;9.10;;
11092;SDS011;5600;50.864;6.102;2023-06-10T17:57:57;92.40;;;8.88;;
11092;SDS011;5600;50.864;6.102;2023-06-10T18:00:58;77.55;;;7.70;;
11092;SDS011;5600;50.864;6.102;2023-06-10T18:04:03;56.50;;;6.97;;
11092;SDS011;5600;50.864;6.102;2023-06-10T18:07:06;116.00;;;9.15;;
11092;SDS011;5600;50.864;6.102;2023-06-10T18:10:08;70.75;;;7.53;;
11092;SDS011;5600;50.864;6.102;2023-06-10T18:13:09;70.65;;;7.43;;
11092;SDS011;5600;50.864;6.102;2023-06-10T18:16:11;86.70;;;8.35;;
11092;SDS011;5600;50.864;6.102;2023-06-10T18:19:12;68.53;;;7.50;;
11092;SDS011;5600;50.864;6.102;2023-06-10T18:22:15;80.13;;;8.20;;
11092;SDS011;5600;50.864;6.102;2023-06-10T18:25:16;69.15;;;7.65;;
11092;SDS011;5600;50.864;6.102;2023-06-10T18:28:17;68.25;;;7.72;;
11092;SDS011;5600;50.864;6.102;2023-06-10T18:31:18;61.30;;;7.43;;